Pope Valley, CA

7:56 AM PST on March 01, 2015 (GMT -0800)
Nut Tree | Change Station
CLOSE
Current Station
Airport
Location: Vacaville,
Elevation: 115 ft
Nearby Weather Stations

Elev 115 ft 38.38 °N, 121.96 °W | Updated 1 hour ago

Clear
Clear
37 °F
Feels Like 37 °F
N
0
Wind Variable Wind from North

Today
High -- | Low -- °F
--% Chance of Precip.
Yesterday
High -- | Low -- °F
Precip. -- in
6:42 AM 6:02 PM
Waxing Gibbous, 86% visible
Pressure 29.99 in
Visibility 10.0 miles
Clouds Clear
Dew Point 32 °F
Humidity 82%
Rainfall 0.00 in
Snow Depth Not available.
UV 0 out of 12
Pollen 8.80 out of 12
Air Quality Not available.
Flu Activity Not available.
METAR KVCB 011453Z AUTO 00000KT 10SM CLR 03/00 A2999 RMK AO2 SLP153 T00280000 53011

More Conditions Fewer Conditions

Pressure 29.99 in
Visibility 10.0 miles
Clouds Clear
Dew Point 32 °F
Humidity 82%
Rainfall 0.00 in
Snow Depth Not available.
UV 0 out of 12
Pollen 8.80 out of 12
Air Quality Not available.
Flu Activity Not available.
METAR KVCB 011453Z AUTO 00000KT 10SM CLR 03/00 A2999 RMK AO2 SLP153 T00280000 53011

More Conditions Fewer Conditions

10-Day Weather Forecast

Almanac

Astronomy

Mar. 01, 2015 Rise Set
Actual Time
Civil Twilight
Nautical Twilight
Astronomical Twilight
Moon
Length of Visible Light
Length of Day
Tomorrow will be .
, % of the Moon is Illuminated

Today's Extremes

State Highs State Lows

Community

WunderPhotos

Upload Photos

1,801,435 photos uploaded!

WunderBlogs® & News

Nearby

Air Quality

  Air Quality AQ Index Pollutant
Not available.

Snow Depth

Station Depth Elevation

Earthquake Activity

City Distance Mag. Time & Date
Minimum magnitude displayed is 2.5.

Coastal Water Temperatures

Place Temperature

Nearby Weather Stations